Eagle Turin — 9VMG6 — position and weather

sailwx.info

Track history (hours):
 
Tides and Currents Weather Stations Pressure Air Temp Water Temp Dewpoint Dewpoint Depression Visibility Wind Speed Wind Dir Waves Ship Positions

Eagle Turin

Last reported at 2017-Nov-23 00:19 UTC. Time now 2017-Nov-23 05:41 UTC.
Position N 37°34' W 001°02'.

Length 246 m; draft 13.2 m.

Type: Ship (hazmat cat B). MMSI: 565770000.

Date/timePositionNaut miles runAvg speedWind from/ knotsBaromVisibWave heightAir tempDewpointWater temp
2017-Nov-23 00:19N 37°34' W 001°02'1 2.7
2017-Nov-22 23:59N 37°33' W 001°01'3 6.0
2017-Nov-22 23:25N 37°30' W 000°58'4 9.2
2017-Nov-22 23:00N 37°28' W 000°54'5 9.6
2017-Nov-22 22:29N 37°25' W 000°49'1111.8
2017-Nov-22 21:35N 37°26' W 000°36'212.2
2017-Nov-22 21:26N 37°27' W 000°34'612.4
2017-Nov-22 20:59N 37°28' W 000°27'612.5
2017-Nov-22 20:30N 37°29' W 000°19'612.7
2017-Nov-22 20:00N 37°30' W 000°12'612.7
2017-Nov-22 19:30N 37°31' W 000°03'  
2017-Nov-14 02:50N 36°02' W 005°09'413.9
2017-Nov-14 02:30N 36°03' W 005°15'611.4
2017-Nov-14 02:00N 36°05' W 005°21'3 5.7
2017-Nov-14 01:30N 36°07' W 005°23'0 0.6
2017-Nov-14 00:58N 36°07' W 005°22'0 0.0
2017-Nov-14 00:28N 36°07' W 005°22'0 0.0
2017-Nov-13 23:58N 36°07' W 005°22'0 0.0
2017-Nov-13 23:28N 36°07' W 005°22'0 0.0
2017-Nov-13 22:58N 36°07' W 005°22'0 0.1
2017-Nov-13 22:28N 36°07' W 005°22'0 0.1
2017-Nov-13 21:58N 36°07' W 005°22'14 0.7
2017-Nov-13 02:00N 36°12' W 005°06'1 1.5
2017-Nov-13 01:30N 36°11' W 005°06'1 1.5
2017-Nov-13 01:00N 36°10' W 005°06'1 1.1
2017-Nov-13 00:30N 36°10' W 005°07'  
Track history (hours):
 
Tides and Currents Weather Stations Pressure Air Temp Water Temp Dewpoint Dewpoint Depression Visibility Wind Speed Wind Dir Waves Ship Positions

Eagle Turin

Last reported at 2017-Nov-23 00:19 UTC. Time now 2017-Nov-23 05:41 UTC.
Position N 37°34' W 001°02'.

Length 246 m; draft 13.2 m.

Type: Ship (hazmat cat B). MMSI: 565770000.

Date/timePositionNaut miles runAvg speedWind from/ knotsBaromVisibWave heightAir tempDewpointWater temp
2017-Nov-23 00:19N 37°34' W 001°02'1 2.7
2017-Nov-22 23:59N 37°33' W 001°01'3 6.0
2017-Nov-22 23:25N 37°30' W 000°58'4 9.2
2017-Nov-22 23:00N 37°28' W 000°54'5 9.6
2017-Nov-22 22:29N 37°25' W 000°49'1111.8
2017-Nov-22 21:35N 37°26' W 000°36'212.2
2017-Nov-22 21:26N 37°27' W 000°34'612.4
2017-Nov-22 20:59N 37°28' W 000°27'612.5
2017-Nov-22 20:30N 37°29' W 000°19'612.7
2017-Nov-22 20:00N 37°30' W 000°12'612.7
2017-Nov-22 19:30N 37°31' W 000°03'  
2017-Nov-14 02:50N 36°02' W 005°09'413.9
2017-Nov-14 02:30N 36°03' W 005°15'611.4
2017-Nov-14 02:00N 36°05' W 005°21'3 5.7
2017-Nov-14 01:30N 36°07' W 005°23'0 0.6
2017-Nov-14 00:58N 36°07' W 005°22'0 0.0
2017-Nov-14 00:28N 36°07' W 005°22'0 0.0
2017-Nov-13 23:58N 36°07' W 005°22'0 0.0
2017-Nov-13 23:28N 36°07' W 005°22'0 0.0
2017-Nov-13 22:58N 36°07' W 005°22'0 0.1
2017-Nov-13 22:28N 36°07' W 005°22'0 0.1
2017-Nov-13 21:58N 36°07' W 005°22'14 0.7
2017-Nov-13 02:00N 36°12' W 005°06'1 1.5
2017-Nov-13 01:30N 36°11' W 005°06'1 1.5
2017-Nov-13 01:00N 36°10' W 005°06'1 1.1
2017-Nov-13 00:30N 36°10' W 005°07'  

Dump ship's entire track history